Thunder radar more information blitzortung!


Radar de pluja more information rain snow radar


Visita la nostra xarxa de llocs de meteo:

Template documentation
and downloads

And another site



No particular awareness of the weather is required.    There are no Weather-warnings

Pagina Historial Weather Underground text

Diari Resum January 5, 2018 Unitats:  Mètric    Imperial   Tant
« Previous Dia
SegĂźent Dia »
Diari Setmana Mensual Anual Personalitzada
  Maxima: Minima: Media:
Temperatura: -17.8 °C -14.9 °C -10.2 °C
Punt de rosada: -17.8 °C -18.6 °C -16.1 °C
Humitat: Humidity % 41 % 49 %
Wind Speed: 0 km/h 0 km/h 11.4 km/h
RĂ fegues de vent: 0 km/h - -
Vent:- - WSW
Pression baro: 0 hPa 33992.1 hPa -
Precipitacions: 0 mm    
Historical Graphs
 
 
Dades de taula per January 5, 2018
Temps Temperatura Punt de rosada Pression baro Vent Wind Speed RĂ fegues de vent Humitat Rainfall Rate (Hourly)
-17.8 °C -17.8 °C 0 hPa Calm     Humidity % 0 mm
00:00 -9.8 °C -15.4 °C 34462.7 hPa NW 11.9 km/h 11.9 km/h 51 % 0 mm
00:10 -11.5 °C -16.1 °C 34293.4 hPa WSW 7.7 km/h 10.3 km/h 57 % 0 mm
00:20 -11.5 °C -16.1 °C 34256.2 hPa WSW 7.7 km/h 12.9 km/h 57 % 0 mm
00:30 -11.6 °C -16.1 °C 34256.2 hPa WSW 7.7 km/h 10.3 km/h 57 % 0 mm
00:40 -11.5 °C -16.1 °C 34293.4 hPa WSW 7.7 km/h 10.3 km/h 57 % 0 mm
00:50 -11.7 °C -16.3 °C 34293.4 hPa WSW 5.1 km/h 7.7 km/h 57 % 0 mm
01:00 -11.9 °C -16.4 °C 34293.4 hPa WSW 5.1 km/h 7.7 km/h 57 % 0 mm
01:10 -11.9 °C -16.4 °C 34293.4 hPa WSW 7.7 km/h 10.3 km/h 57 % 0 mm
01:20 -11.9 °C -16.3 °C 34293.4 hPa West 5.1 km/h 7.7 km/h 58 % 0 mm
01:30 -11.9 °C -16.3 °C 34293.4 hPa West 7.7 km/h 7.7 km/h 58 % 0 mm
01:40 -11.8 °C -16.2 °C 34293.4 hPa West 5.1 km/h 7.7 km/h 58 % 0 mm
01:50 -11.7 °C -16.1 °C 34293.4 hPa WSW 5.1 km/h 7.7 km/h 58 % 0 mm
02:00 -11.6 °C -16 °C 34293.4 hPa WSW 7.7 km/h 7.7 km/h 58 % 0 mm
02:10 -11.6 °C -16 °C 34293.4 hPa WSW 7.7 km/h 10.3 km/h 58 % 0 mm
02:20 -11.7 °C -16.2 °C 34293.4 hPa WSW 5.1 km/h 10.3 km/h 58 % 0 mm
02:30 -11.9 °C -16.3 °C 34293.4 hPa WSW 2.6 km/h 10.3 km/h 58 % 0 mm
03:00 -11.7 °C -15.9 °C 34327.3 hPa WSW 5.1 km/h 7.7 km/h 59 % 0 mm
03:10 -11.6 °C -15.9 °C 34293.4 hPa WSW 2.6 km/h 10.3 km/h 59 % 0 mm
03:20 -11.5 °C -15.8 °C 34293.4 hPa WSW 5.1 km/h 7.7 km/h 59 % 0 mm
03:30 -11.3 °C -15.6 °C 34293.4 hPa West 5.1 km/h 7.7 km/h 59 % 0 mm
03:40 -11.1 °C -15.4 °C 34327.3 hPa West 7.7 km/h 7.7 km/h 59 % 0 mm
03:50 -10.9 °C -15.2 °C 34293.4 hPa West 2.6 km/h 7.7 km/h 59 % 0 mm
04:00 -10.7 °C -15.2 °C 34293.4 hPa WSW 7.7 km/h 15.6 km/h 58 % 0 mm
10:02 -10.6 °C -15.2 °C 34293.4 hPa West 15 km/h 15 km/h 57 % 0 mm
10:05 -10.4 °C -15.1 °C 34293.4 hPa WSW 9 km/h 9 km/h 57 % 0 mm
10:10 -10.3 °C -14.9 °C 34327.3 hPa West 11.9 km/h 11.9 km/h 57 % 0 mm
10:11 -10.2 °C -14.9 °C 34327.3 hPa WNW 9 km/h 9 km/h 57 % 0 mm
10:16 -10.1 °C -14.8 °C 34327.3 hPa West 9 km/h 9 km/h 57 % 0 mm
10:17 -10.1 °C -14.8 °C 34327.3 hPa SW 12.7 km/h 12.7 km/h 57 % 0 mm
10:22 -9.9 °C -14.8 °C 34293.4 hPa WNW 9 km/h 9 km/h 56 % 0 mm
10:27 -9.9 °C -14.7 °C 34293.4 hPa WSW 15 km/h 15 km/h 56 % 0 mm
10:32 -9.8 °C -14.7 °C 34293.4 hPa SW 11.9 km/h 11.9 km/h 56 % 0 mm
10:35 -9.8 °C -14.7 °C 34293.4 hPa West 24.3 km/h 24.3 km/h 56 % 0 mm
10:41 -9.8 °C -14.8 °C 34256.2 hPa West 15.3 km/h 15.3 km/h 55 % 0 mm
10:42 -9.8 °C -14.8 °C 34256.2 hPa West 15 km/h 15.6 km/h 55 % 0 mm
10:47 -9.6 °C -14.6 °C 34256.2 hPa West 15.3 km/h 15.3 km/h 55 % 0 mm
10:48 -9.7 °C -14.6 °C 34256.2 hPa West 20.9 km/h 20.9 km/h 55 % 0 mm
10:53 -9.6 °C -14.7 °C 34256.2 hPa WSW 20.9 km/h 20.9 km/h 54 % 0 mm
10:55 -9.6 °C -14.7 °C 34256.2 hPa WSW 29.8 km/h 29.8 km/h 54 % 0 mm
10:59 -9.5 °C -14.6 °C 34256.2 hPa West 15 km/h 15 km/h 54 % 0 mm
11:03 -9.4 °C -14.6 °C 34256.2 hPa West 20.9 km/h 20.9 km/h 54 % 0 mm
11:08 -9.3 °C -14.6 °C 34256.2 hPa WSW 11.9 km/h 11.9 km/h 53 % 0 mm
11:10 -9.3 °C -14.6 °C 34256.2 hPa SW 34.1 km/h 34.1 km/h 53 % 0 mm
11:15 -9.2 °C -14.5 °C 34256.2 hPa NW 15 km/h 15 km/h 53 % 0 mm
11:17 -9.2 °C -14.5 °C 34256.2 hPa ENE 20.3 km/h 20.3 km/h 53 % 0 mm
11:22 -9.1 °C -14.4 °C 34256.2 hPa WSW 9 km/h 9 km/h 53 % 0 mm
11:23 -9.1 °C -14.4 °C 34256.2 hPa SW 14 km/h 14 km/h 53 % 0 mm
11:28 -9.1 °C -14.6 °C 34256.2 hPa WSW 15 km/h 15 km/h 52 % 0 mm
11:33 -9.1 °C -14.6 °C 34256.2 hPa WNW 15 km/h 15 km/h 52 % 0 mm
11:35 -9.1 °C -14.5 °C 34256.2 hPa West 23.8 km/h 23.8 km/h 52 % 0 mm
11:40 -9.1 °C -14.5 °C 34256.2 hPa West 23.8 km/h 23.8 km/h 52 % 0 mm
11:41 -9.1 °C -14.5 °C 34256.2 hPa WSW 17.9 km/h 17.9 km/h 52 % 0 mm
11:46 -9 °C -14.6 °C 34256.2 hPa West 23.8 km/h 23.8 km/h 51 % 0 mm
11:47 -9 °C -14.6 °C 34256.2 hPa WSW 20.9 km/h 20.9 km/h 51 % 0 mm
11:50 -8.9 °C -14.6 °C 34256.2 hPa WSW 15.6 km/h 15.6 km/h 51 % 0 mm
11:55 -8.9 °C -14.6 °C 34256.2 hPa SW 20.9 km/h 20.9 km/h 51 % 0 mm
11:58 -8.9 °C -14.6 °C 34256.2 hPa SW 15.3 km/h 15.3 km/h 51 % 0 mm
12:03 -8.9 °C -14.6 °C 34256.2 hPa WNW 23.8 km/h 23.8 km/h 51 % 0 mm
12:04 -8.9 °C -14.6 °C 34256.2 hPa West 17.9 km/h 17.9 km/h 51 % 0 mm
12:09 -8.9 °C -14.6 °C 34222.3 hPa West 20.9 km/h 20.9 km/h 51 % 0 mm
12:12 -8.9 °C -14.6 °C 34222.3 hPa East 9 km/h 9.8 km/h 51 % 0 mm
12:16 -8.9 °C -14.6 °C 34222.3 hPa SW 23.8 km/h 23.8 km/h 51 % 0 mm
12:18 -8.9 °C -14.6 °C 34222.3 hPa West 19.2 km/h 19.2 km/h 51 % 0 mm
12:19 -8.8 °C -14.5 °C 34222.3 hPa WSW 15 km/h 15 km/h 51 % 0 mm
12:24 -8.8 °C -14.6 °C 34198.6 hPa WSW 20.9 km/h 20.9 km/h 50 % 0 mm
12:29 -8.7 °C -14.6 °C 34198.6 hPa West 26.9 km/h 26.9 km/h 50 % 0 mm
12:34 -8.7 °C -14.5 °C 34198.6 hPa WNW 26.9 km/h 26.9 km/h 50 % 0 mm
12:36 -8.7 °C -14.5 °C 34198.6 hPa WNW 23.8 km/h 23.8 km/h 50 % 0 mm
12:38 -8.6 °C -14.4 °C 34198.6 hPa WNW 31.4 km/h 31.4 km/h 50 % 0 mm
12:43 -8.7 °C -14.6 °C 34198.6 hPa WSW 35.7 km/h 35.7 km/h 49 % 0 mm
12:48 -8.6 °C -14.6 °C 34198.6 hPa WNW 17.9 km/h 17.9 km/h 49 % 0 mm
12:49 -8.7 °C -14.6 °C 34198.6 hPa NW 26.9 km/h 26.9 km/h 49 % 0 mm
12:54 -8.7 °C -14.8 °C 34198.6 hPa WNW 26.9 km/h 26.9 km/h 48 % 0 mm
12:55 -8.6 °C -14.6 °C 34198.6 hPa WSW 23.8 km/h 23.8 km/h 49 % 0 mm
13:00 -8.6 °C -14.7 °C 34198.6 hPa WSW 15.6 km/h 15.6 km/h 48 % 0 mm
13:01 -8.6 °C -14.7 °C 34198.6 hPa SW 20.9 km/h 20.9 km/h 48 % 0 mm
13:05 -8.5 °C -14.7 °C 34198.6 hPa WNW 15.6 km/h 15.6 km/h 48 % 0 mm
13:07 -8.4 °C -14.6 °C 34198.6 hPa WNW 15 km/h 15 km/h 48 % 0 mm
13:12 -8.3 °C -14.7 °C 34198.6 hPa SW 23.8 km/h 23.8 km/h 47 % 0 mm
13:17 -8.3 °C -14.7 °C 34198.6 hPa WSW 25.9 km/h 25.9 km/h 47 % 0 mm
13:18 -8.4 °C -14.6 °C 34198.6 hPa NW 26.9 km/h 26.9 km/h 48 % 0 mm
13:20 -8.4 °C -14.6 °C 34198.6 hPa West 26.9 km/h 26.9 km/h 48 % 0 mm
13:25 -8.3 °C -14.7 °C 34164.7 hPa SSW 20.9 km/h 20.9 km/h 47 % 0 mm
13:28 -8.3 °C -14.7 °C 34164.7 hPa WSW 15 km/h 15 km/h 47 % 0 mm
13:33 -8.1 °C -14.5 °C 34164.7 hPa SW 17.9 km/h 17.9 km/h 47 % 0 mm
13:34 -8.1 °C -14.5 °C 34164.7 hPa WNW 15 km/h 15 km/h 47 % 0 mm
13:38 -8.1 °C -14.6 °C 34130.9 hPa SW 20.9 km/h 20.9 km/h 46 % 0 mm
13:40 -8.2 °C -14.7 °C 34130.9 hPa West 23.8 km/h 23.8 km/h 46 % 0 mm
13:43 -8.2 °C -14.7 °C 34130.9 hPa SW 17.9 km/h 17.9 km/h 46 % 0 mm
13:48 -8.2 °C -14.7 °C 34130.9 hPa WNW 23.8 km/h 23.8 km/h 46 % 0 mm
13:49 -8.1 °C -14.6 °C 34130.9 hPa WNW 11.9 km/h 11.9 km/h 46 % 0 mm
13:50 -8.2 °C -14.7 °C 34130.9 hPa NW 12.7 km/h 14 km/h 46 % 0 mm
13:54 -8.2 °C -14.9 °C 34164.7 hPa SSW 23.8 km/h 23.8 km/h 45 % 0 mm
13:59 -8.2 °C -14.7 °C 34164.7 hPa WSW 11.9 km/h 11.9 km/h 46 % 0 mm
14:03 -8 °C -14.6 °C 34164.7 hPa WNW 9 km/h 9 km/h 46 % 0 mm
14:05 -8 °C -14.6 °C 34164.7 hPa WSW 7.7 km/h 23.3 km/h 46 % 0 mm
14:10 -8 °C -14.7 °C 34130.9 hPa West 18.3 km/h 18.3 km/h 45 % 0 mm
14:11 -8 °C -14.6 °C 34130.9 hPa WNW 20.9 km/h 20.9 km/h 46 % 0 mm
14:16 -8 °C -14.7 °C 34130.9 hPa SSW 15 km/h 15 km/h 45 % 0 mm
14:21 -8.1 °C -14.8 °C 34130.9 hPa West 15 km/h 15 km/h 45 % 0 mm
14:23 -8 °C -14.7 °C 34130.9 hPa South 20.9 km/h 20.9 km/h 45 % 0 mm
14:28 -8.1 °C -14.8 °C 34130.9 hPa West 15 km/h 15 km/h 45 % 0 mm
14:32 -8.1 °C -14.9 °C 34130.9 hPa WNW 11.9 km/h 14 km/h 44 % 0 mm
14:37 -8 °C -14.9 °C 34130.9 hPa WSW 17.9 km/h 17.9 km/h 44 % 0 mm
14:38 -8 °C -14.9 °C 34130.9 hPa West 16.1 km/h 16.1 km/h 44 % 0 mm
14:43 -8 °C -14.9 °C 34130.9 hPa WSW 26.9 km/h 26.9 km/h 44 % 0 mm
14:44 -8 °C -14.9 °C 34130.9 hPa West 26.9 km/h 26.9 km/h 44 % 0 mm
14:49 -8.1 °C -15 °C 34130.9 hPa WNW 26.9 km/h 26.9 km/h 44 % 0 mm
14:51 -8.1 °C -15.2 °C 34130.9 hPa WNW 32.8 km/h 32.8 km/h 43 % 0 mm
14:56 -8.1 °C -15 °C 34130.9 hPa West 20.9 km/h 20.9 km/h 44 % 0 mm
14:59 -8 °C -14.9 °C 34130.9 hPa West 20.9 km/h 20.9 km/h 44 % 0 mm
15:03 -8.1 °C -14.9 °C 34130.9 hPa WSW 15 km/h 15 km/h 44 % 0 mm
15:08 -8.1 °C -15.2 °C 34130.9 hPa West 23.8 km/h 23.8 km/h 43 % 0 mm
15:13 -8.1 °C -15.1 °C 34130.9 hPa WSW 17.9 km/h 17.9 km/h 43 % 0 mm
15:14 -8.1 °C -15.1 °C 34130.9 hPa WSW 20.9 km/h 20.9 km/h 43 % 0 mm
15:19 -8.1 °C -15.1 °C 34130.9 hPa WSW 26.9 km/h 26.9 km/h 43 % 0 mm
15:24 -8.1 °C -15.1 °C 34130.9 hPa WSW 15 km/h 15 km/h 43 % 0 mm
15:26 -8.1 °C -15.1 °C 34130.9 hPa WNW 15 km/h 15 km/h 43 % 0 mm
15:31 -8 °C -15.1 °C 34130.9 hPa WSW 11.9 km/h 11.9 km/h 43 % 0 mm
15:33 -8 °C -15.1 °C 34130.9 hPa West 17.9 km/h 17.9 km/h 43 % 0 mm
15:38 -8 °C -15.1 °C 34130.9 hPa SSW 11.9 km/h 11.9 km/h 43 % 0 mm
15:40 -7.9 °C -15.1 °C 34130.9 hPa West 20.9 km/h 20.9 km/h 43 % 0 mm
15:43 -8 °C -15.1 °C 34130.9 hPa NW 20.9 km/h 20.9 km/h 43 % 0 mm
15:48 -8 °C -15.3 °C 34130.9 hPa SW 9 km/h 10.3 km/h 42 % 0 mm
15:49 -7.9 °C -15.1 °C 34130.9 hPa WSW 12.7 km/h 12.7 km/h 43 % 0 mm
15:54 -7.9 °C -15.2 °C 34097 hPa West 15 km/h 15 km/h 42 % 0 mm
15:59 -8 °C -15.3 °C 34097 hPa WSW 23.8 km/h 23.8 km/h 42 % 0 mm
16:05 -8.2 °C -15.6 °C 34097 hPa WSW 20.9 km/h 20.9 km/h 41 % 0 mm
16:10 -8.1 °C -15.4 °C 34097 hPa WSW 18.3 km/h 18.3 km/h 42 % 0 mm
16:15 -8.1 °C -15.4 °C 34097 hPa SW 15 km/h 15 km/h 42 % 0 mm
16:17 -8.1 °C -15.3 °C 34097 hPa WSW 6.8 km/h 6.8 km/h 42 % 0 mm
16:18 -8.1 °C -15.3 °C 34097 hPa WSW 20.3 km/h 20.3 km/h 42 % 0 mm
16:23 -8.2 °C -15.4 °C 34130.9 hPa West 9 km/h 9 km/h 42 % 0 mm
16:28 -8.1 °C -15.4 °C 34130.9 hPa SW 11.9 km/h 11.9 km/h 42 % 0 mm
16:33 -8.2 °C -15.4 °C 34130.9 hPa WSW 15 km/h 15 km/h 42 % 0 mm
16:35 -8.2 °C -15.4 °C 34130.9 hPa WSW 15 km/h 15.3 km/h 42 % 0 mm
16:40 -8.3 °C -15.6 °C 34130.9 hPa WNW 15 km/h 15 km/h 42 % 0 mm
16:43 -8.3 °C -15.6 °C 34130.9 hPa West 11.9 km/h 11.9 km/h 42 % 0 mm
16:48 -8.4 °C -15.6 °C 34130.9 hPa WSW 15 km/h 15 km/h 42 % 0 mm
16:53 -8.4 °C -15.7 °C 34130.9 hPa WSW 20.9 km/h 20.9 km/h 42 % 0 mm
16:58 -8.5 °C -15.7 °C 34130.9 hPa WSW 9 km/h 9 km/h 42 % 0 mm
17:03 -8.6 °C -15.8 °C 34130.9 hPa WNW 15 km/h 15 km/h 42 % 0 mm
17:05 -8.7 °C -15.9 °C 34130.9 hPa SW 15 km/h 15 km/h 42 % 0 mm
17:10 -8.7 °C -15.7 °C 34097 hPa WNW 11.9 km/h 11.9 km/h 43 % 0 mm
17:13 -8.8 °C -15.9 °C 34097 hPa WSW 15 km/h 15 km/h 42 % 0 mm
17:18 -8.8 °C -16 °C 34097 hPa WSW 11.9 km/h 11.9 km/h 42 % 0 mm
17:23 -9 °C -16.2 °C 34097 hPa SW 12.7 km/h 12.7 km/h 42 % 0 mm
17:28 -9.1 °C -16.3 °C 34097 hPa SW 17.9 km/h 17.9 km/h 42 % 0 mm
17:34 -9.3 °C -16.4 °C 34097 hPa West 11.9 km/h 11.9 km/h 42 % 0 mm
17:37 -9.3 °C -16.4 °C 34097 hPa WSW 9 km/h 9 km/h 42 % 0 mm
17:42 -9.4 °C -16.5 °C 34097 hPa SSW 11.9 km/h 11.9 km/h 42 % 0 mm
17:44 -9.4 °C -16.5 °C 34097 hPa West 14.5 km/h 14.5 km/h 42 % 0 mm
17:49 -9.5 °C -16.4 °C 34097 hPa WSW 11.9 km/h 11.9 km/h 43 % 0 mm
17:51 -9.6 °C -16.5 °C 34130.9 hPa WSW 15 km/h 15 km/h 43 % 0 mm
17:53 -9.6 °C -16.5 °C 34130.9 hPa West 15 km/h 15 km/h 43 % 0 mm
17:58 -9.6 °C -16.6 °C 34130.9 hPa WSW 11.9 km/h 11.9 km/h 43 % 0 mm
17:59 -9.6 °C -16.6 °C 34130.9 hPa WSW 16.1 km/h 16.1 km/h 43 % 0 mm
18:04 -9.7 °C -16.6 °C 34130.9 hPa WSW 9 km/h 9 km/h 43 % 0 mm
18:07 -9.8 °C -16.7 °C 34097 hPa SW 15 km/h 15 km/h 43 % 0 mm
18:12 -9.8 °C -16.7 °C 34097 hPa West 15 km/h 15 km/h 43 % 0 mm
18:13 -9.8 °C -16.7 °C 34097 hPa WSW 11.9 km/h 11.9 km/h 43 % 0 mm
18:18 -9.9 °C -16.8 °C 34097 hPa WSW 12.2 km/h 12.2 km/h 43 % 0 mm
18:23 -9.9 °C -16.8 °C 34097 hPa WSW 11.9 km/h 11.9 km/h 43 % 0 mm
18:26 -9.9 °C -16.8 °C 34097 hPa West 11.9 km/h 11.9 km/h 43 % 0 mm
18:31 -10 °C -16.7 °C 34097 hPa West 11.9 km/h 11.9 km/h 44 % 0 mm
18:33 -10 °C -16.7 °C 34097 hPa West 11.1 km/h 11.1 km/h 44 % 0 mm
18:36 -10 °C -16.7 °C 34130.9 hPa WSW 11.9 km/h 11.9 km/h 44 % 0 mm
18:40 -10 °C -16.7 °C 34130.9 hPa WSW 9 km/h 9 km/h 44 % 0 mm
18:43 -10 °C -16.7 °C 34130.9 hPa West 9 km/h 9 km/h 44 % 0 mm
18:45 -10 °C -16.7 °C 34130.9 hPa West 6 km/h 6 km/h 44 % 0 mm
18:50 -10.1 °C -16.8 °C 34130.9 hPa West 6.3 km/h 6.3 km/h 44 % 0 mm
18:55 -10.1 °C -16.8 °C 34130.9 hPa SW 6 km/h 6 km/h 44 % 0 mm
19:00 -10.2 °C -16.8 °C 34130.9 hPa ESE 3.1 km/h   44 % 0 mm
19:05 -10.3 °C -17 °C 34130.9 hPa ESE 4.2 km/h 4.2 km/h 44 % 0 mm
19:11 -10.3 °C -17 °C 34130.9 hPa ESE 7.6 km/h 7.6 km/h 44 % 0 mm
19:12 -10.4 °C -17.1 °C 34130.9 hPa ESE 6 km/h 6 km/h 44 % 0 mm
19:13 -10.4 °C -17.1 °C 34130.9 hPa ESE 6 km/h 6 km/h 44 % 0 mm
19:18 -10.5 °C -17.2 °C 34130.9 hPa Calm     44 % 0 mm
19:23 -10.6 °C -17.3 °C 34130.9 hPa Calm     44 % 0 mm
19:25 -10.7 °C -17.3 °C 34130.9 hPa SW 3.7 km/h 3.7 km/h 44 % 0 mm
19:30 -10.7 °C -17.4 °C 34130.9 hPa SW 3.7 km/h 3.7 km/h 44 % 0 mm
19:31 -10.7 °C -17.4 °C 34130.9 hPa SW 6 km/h 6 km/h 44 % 0 mm
19:33 -10.7 °C -17.2 °C 34130.9 hPa Calm     45 % 0 mm
19:38 -10.8 °C -17.3 °C 34130.9 hPa WSW 6 km/h 6 km/h 45 % 0 mm
19:40 -13.8 °C -18.3 °C 34063.2 hPa ENE 2.6 km/h 5.1 km/h 56 % 0 mm
19:43 -10.8 °C -17.3 °C 34130.9 hPa WSW 6.3 km/h 6.3 km/h 45 % 0 mm
19:48 -10.7 °C -17.2 °C 34130.9 hPa West 6 km/h 6 km/h 45 % 0 mm
19:52 -10.8 °C -17.3 °C 34130.9 hPa NW 6 km/h 6 km/h 45 % 0 mm
19:55 -10.8 °C -17.3 °C 34130.9 hPa West 6 km/h 6 km/h 45 % 0 mm
20:00 -10.8 °C -17.3 °C 34130.9 hPa SE 6 km/h   45 % 0 mm
20:01 -10.8 °C -17.3 °C 34130.9 hPa South 3.1 km/h   45 % 0 mm
20:06 -10.9 °C -17.2 °C 34130.9 hPa South 3.1 km/h   46 % 0 mm
20:07 -10.9 °C -17.2 °C 34130.9 hPa South 3.1 km/h 3.1 km/h 46 % 0 mm
20:11 -11.1 °C -17.3 °C 34130.9 hPa South 3.1 km/h 3.1 km/h 46 % 0 mm
20:16 -11.1 °C -17.4 °C 34130.9 hPa SSW 3.1 km/h 3.1 km/h 46 % 0 mm
20:18 -11.2 °C -17.4 °C 34130.9 hPa SSW 3.1 km/h 3.1 km/h 46 % 0 mm
20:23 -11.2 °C -17.4 °C 34130.9 hPa Calm     46 % 0 mm
20:28 -11.3 °C -17.6 °C 34130.9 hPa SW 6 km/h 6 km/h 46 % 0 mm
20:30 -14.1 °C -18.4 °C 34063.2 hPa SE 2.6 km/h 5.1 km/h 58 % 0 mm
20:31 -11.4 °C -17.6 °C 34130.9 hPa WSW 6 km/h 6 km/h 46 % 0 mm
20:34 -11.4 °C -17.6 °C 34130.9 hPa WSW 6 km/h 6 km/h 46 % 0 mm
20:39 -11.3 °C -17.6 °C 34130.9 hPa WSW 6 km/h 6 km/h 46 % 0 mm
20:45 -11.3 °C -17.4 °C 34130.9 hPa WSW 2.6 km/h 5.1 km/h 47 % 0 mm
20:46 -11.4 °C -17.4 °C 34130.9 hPa SW 6 km/h 6 km/h 47 % 0 mm
20:50 -14.2 °C -18.5 °C 34063.2 hPa SW 2.6 km/h 5.1 km/h 58 % 0 mm
20:51 -11.5 °C -17.6 °C 34130.9 hPa SW 4.2 km/h   47 % 0 mm
20:56 -11.6 °C -17.7 °C 34130.9 hPa SW 3.1 km/h 3.1 km/h 47 % 0 mm
21:00 -14.2 °C -18.4 °C 34063.2 hPa WSW 2.6 km/h 5.1 km/h 59 % 0 mm
21:01 -11.7 °C -17.7 °C 34130.9 hPa SW 3.7 km/h   47 % 0 mm
21:07 -11.6 °C -17.5 °C 34130.9 hPa SW 3.1 km/h 3.7 km/h 48 % 0 mm
21:08 -11.7 °C -17.6 °C 34130.9 hPa SW 3.1 km/h 3.1 km/h 48 % 0 mm
21:13 -11.7 °C -17.6 °C 34130.9 hPa SW 5.6 km/h 5.6 km/h 48 % 0 mm
21:16 -11.8 °C -17.7 °C 34130.9 hPa SW 6 km/h 6 km/h 48 % 0 mm
21:21 -11.8 °C -17.7 °C 34130.9 hPa WSW 3.1 km/h   48 % 0 mm
21:22 -11.8 °C -17.7 °C 34130.9 hPa WSW 3.1 km/h   48 % 0 mm
21:27 -11.8 °C -17.7 °C 34130.9 hPa WSW 3.1 km/h 3.1 km/h 48 % 0 mm
21:30 -14.3 °C -18.3 °C 34063.2 hPa Calm   2.6 km/h 60 % 0 mm
21:32 -11.8 °C -17.6 °C 34130.9 hPa Calm     49 % 0 mm
21:35 -11.8 °C -17.6 °C 34130.9 hPa Calm     49 % 0 mm
21:38 -11.8 °C -17.6 °C 34097 hPa West 4.2 km/h   49 % 0 mm
21:40 -14.4 °C -18.4 °C 34063.2 hPa Calm     60 % 0 mm
21:43 -11.8 °C -17.5 °C 34097 hPa Calm     49 % 0 mm
21:46 -11.8 °C -17.5 °C 34097 hPa West 6.3 km/h 6.3 km/h 49 % 0 mm
21:49 -11.7 °C -17.4 °C 34097 hPa WSW 9 km/h 9 km/h 49 % 0 mm
21:50 -14.4 °C -18.3 °C 34029.3 hPa Calm     61 % 0 mm
21:52 -11.7 °C -17.4 °C 34097 hPa WNW 8 km/h 8 km/h 49 % 0 mm
21:58 -11.7 °C -17.4 °C 34097 hPa SSW 3.7 km/h   49 % 0 mm
21:59 -11.7 °C -17.4 °C 34097 hPa SSW 4.2 km/h 4.2 km/h 49 % 0 mm
22:03 -11.8 °C -17.6 °C 34097 hPa SW 7.6 km/h 7.6 km/h 49 % 0 mm
22:08 -12 °C -17.7 °C 34097 hPa South 9 km/h 9 km/h 49 % 0 mm
22:10 -14.6 °C -18.4 °C 34029.3 hPa East 2.6 km/h 2.6 km/h 61 % 0 mm
22:12 -12 °C -17.6 °C 34097 hPa WSW 9 km/h 9 km/h 50 % 0 mm
22:13 -12 °C -17.6 °C 34097 hPa WSW 6.3 km/h 6.3 km/h 50 % 0 mm
22:18 -12.1 °C -17.6 °C 34097 hPa SW 7.6 km/h 7.6 km/h 50 % 0 mm
22:23 -12.1 °C -17.7 °C 34097 hPa SW 11.9 km/h 11.9 km/h 50 % 0 mm
22:25 -12.1 °C -17.7 °C 34097 hPa WSW 11.9 km/h 11.9 km/h 50 % 0 mm
22:30 -12.1 °C -17.6 °C 34097 hPa West 9 km/h 9 km/h 50 % 0 mm
22:31 -12.1 °C -17.6 °C 34097 hPa WSW 9 km/h 9 km/h 50 % 0 mm
22:32 -12 °C -17.6 °C 34097 hPa WSW 6.3 km/h 6.3 km/h 50 % 0 mm
22:36 -12 °C -17.6 °C 34097 hPa SW 6 km/h 6 km/h 50 % 0 mm
22:40 -14.9 °C -18.6 °C 33992.1 hPa SW 2.6 km/h 5.1 km/h 62 % 0 mm
22:41 -12 °C -17.6 °C 34097 hPa WNW 6 km/h 6 km/h 50 % 0 mm
22:44 -12.1 °C -17.6 °C 34097 hPa WNW 3.7 km/h 4.2 km/h 50 % 0 mm
22:49 -12 °C -17.4 °C 34097 hPa West 6 km/h 6 km/h 51 % 0 mm
22:54 -12 °C -17.4 °C 34130.9 hPa West 6 km/h 6 km/h 51 % 0 mm
22:56 -12 °C -17.4 °C 34130.9 hPa WSW 6.3 km/h 6.3 km/h 51 % 0 mm
22:59 -12 °C -17.4 °C 34130.9 hPa SW 6 km/h 6 km/h 51 % 0 mm
23:03 -12.1 °C -17.4 °C 34130.9 hPa SW 3.1 km/h 3.1 km/h 51 % 0 mm
23:06 -12.1 °C -17.5 °C 34097 hPa SW 2.3 km/h   51 % 0 mm
23:10 -12.2 °C -17.6 °C 34097 hPa Calm     51 % 0 mm
23:15 -12.3 °C -17.7 °C 34097 hPa Calm     51 % 0 mm
23:16 -12.3 °C -17.7 °C 34097 hPa Calm     51 % 0 mm
23:19 -12.4 °C -17.7 °C 34097 hPa Calm     51 % 0 mm
23:20 -14.9 °C -18.4 °C 33992.1 hPa WNW 2.6 km/h 5.1 km/h 64 % 0 mm
23:23 -12.4 °C -17.8 °C 34097 hPa ENE 3.7 km/h 3.7 km/h 51 % 0 mm
23:28 -12.4 °C -17.7 °C 34097 hPa ENE 4.2 km/h   52 % 0 mm
23:30 -12.4 °C -17.7 °C 34097 hPa ENE 3.1 km/h 3.7 km/h 52 % 0 mm
23:32 -12.4 °C -17.7 °C 34097 hPa ENE 6 km/h 6 km/h 52 % 0 mm
23:35 -12.4 °C -17.7 °C 34097 hPa Calm     52 % 0 mm
23:40 -12.4 °C -17.7 °C 34097 hPa Calm     52 % 0 mm
23:45 -12.6 °C -17.8 °C 34097 hPa WNW 5.1 km/h   52 % 0 mm
23:47 -12.6 °C -17.8 °C 34097 hPa WNW 6 km/h 6 km/h 52 % 0 mm
23:52 -12.7 °C -17.9 °C 34097 hPa Calm     52 % 0 mm
23:53 -12.7 °C -17.9 °C 34097 hPa Calm     52 % 0 mm
23:54 -12.7 °C -17.9 °C 34097 hPa Calm     52 % 0 mm
23:58 -12.8 °C -18 °C 34097 hPa ENE 6 km/h 6 km/h 52 % 0 mm
Meteo Sesrovires
Elogis d' Weather Underground - 2 mb

Guio original per  Jim McMurry - jmcmurry@mwt.net Adaptat per a la plantilla per  Wim van der Kuil - Leuven-Template.eu

Trobareu la nostra informacio del temps tambe a:

Weather Underground

AWEKAS